Time;durP1;ratioP1;P1;durP2;ratioP2;P2;SDS_P1;SDS_P2;PMS_P1;PMS_P2;Temp;Humidity;BMP_temperature;BMP_pressure;BME280_temperature;BME280_humidity;BME280_pressure;Samples;Min_cycle;Max_cycle;Signal;HPM_P1;HPM_P2
2022/09/12 00:02:24;;;;;;;;;;;;;;;18.82;76.33;95036.09;5114537;28;1202;-63
2022/09/12 00:04:50;;;;;;;;;;;;;;;18.91;75.06;95041.06;5114679;28;1011;-63
2022/09/12 00:07:16;;;;;;;;;;;;;;;18.84;75.33;95037.56;5114734;28;1032;-64
2022/09/12 00:09:42;;;;;;;;;;;;;;;18.99;74.30;95033.72;5114541;28;960;-64
2022/09/12 00:12:08;;;;;;;;;;;;;;;18.70;74.13;95030.50;5114461;28;1028;-64
2022/09/12 00:14:35;;;;;;;;;;;;;;;18.54;75.05;95023.69;5114240;28;1043;-64
2022/09/12 00:17:01;;;;;;;;;;;;;;;18.39;75.05;95023.13;5114368;28;1055;-63
2022/09/12 00:19:29;;;;;;;;;;;;;;;18.24;76.14;95021.47;5113959;28;1988;-64
2022/09/12 00:21:55;;;;;;;;;;;;;;;18.07;76.75;95023.81;5114459;28;988;-63
2022/09/12 00:24:21;;;;;;;;;;;;;;;18.12;75.62;95037.53;5114038;28;1028;-63
2022/09/12 00:26:48;;;;;;;;;;;;;;;17.95;75.95;95036.31;5114268;28;1039;-63
2022/09/12 00:29:18;;;;;;;;;;;;;;;17.84;76.08;95037.78;5114200;28;1032;-63
2022/09/12 00:31:44;;;;;;;;;;;;;;;17.94;76.35;95040.88;5113630;28;1044;-63
2022/09/12 00:34:10;;;;;;;;;;;;;;;18.24;74.53;95035.00;5114416;28;999;-64
2022/09/12 00:36:37;;;;;;;;;;;;;;;17.94;75.13;95042.75;5112787;28;1051;-63
2022/09/12 00:39:03;;;;;;;;;;;;;;;17.67;76.01;95042.72;5114265;28;1022;-64
2022/09/12 00:41:33;;;;;;;;;;;;;;;17.71;75.88;95046.69;5113675;28;1910;-63
2022/09/12 00:44:03;;;;;;;;;;;;;;;17.74;76.91;95048.16;5114165;28;999;-63
2022/09/12 00:46:35;;;;;;;;;;;;;;;18.24;74.75;95043.13;5113671;28;1063;-64
2022/09/12 00:49:13;;;;;;;;;;;;;;;18.29;74.63;95042.50;5113883;28;1116;-64
2022/09/12 00:51:42;;;;;;;;;;;;;;;18.36;74.27;95048.72;5113674;28;1048;-64
2022/09/12 00:54:10;;;;;;;;;;;;;;;18.36;73.87;95040.59;5113875;28;1198;-63
2022/09/12 00:56:37;;;;;;;;;;;;;;;18.34;74.52;95037.28;5113575;28;1012;-63
2022/09/12 00:59:24;;;;;;;;;;;;;;;18.45;73.84;95038.50;5113609;28;1200;-64
2022/09/12 01:01:50;;;;;;;;;;;;;;;18.40;73.28;95025.63;5113759;28;1977;-64
2022/09/12 01:04:18;;;;;;;;;;;;;;;18.37;73.02;95025.22;5113795;28;1011;-64
2022/09/12 01:06:45;;;;;;;;;;;;;;;18.24;72.77;95026.88;5113652;28;1019;-64
2022/09/12 01:09:13;;;;;;;;;;;;;;;17.93;73.04;95022.19;5113645;28;1071;-64
2022/09/12 01:11:39;;;;;;;;;;;;;;;17.69;73.58;95023.59;5113758;28;995;-63
2022/09/12 01:14:06;;;;;;;;;;;;;;;17.60;74.17;95032.97;5113825;28;992;-63
2022/09/12 01:16:36;;;;;;;;;;;;;;;17.85;72.99;95023.22;5113399;28;1099;-63
2022/09/12 01:19:02;;;;;;;;;;;;;;;17.69;73.05;95027.13;5113613;28;1092;-63
2022/09/12 01:21:46;;;;;;;;;;;;;;;17.50;73.34;95019.88;5113184;28;1988;-63
2022/09/12 01:24:15;;;;;;;;;;;;;;;17.24;74.97;95009.84;5113517;28;1159;-63
2022/09/12 01:27:00;;;;;;;;;;;;;;;17.52;73.60;95010.50;5113308;28;1083;-63
2022/09/12 01:29:45;;;;;;;;;;;;;;;17.67;73.02;95012.19;5113537;28;1066;-64
2022/09/12 01:32:25;;;;;;;;;;;;;;;17.47;74.08;95012.16;5113313;28;1044;-64
2022/09/12 01:34:54;;;;;;;;;;;;;;;17.30;74.07;95015.28;5113538;28;1028;-64
2022/09/12 01:37:23;;;;;;;;;;;;;;;17.37;73.84;95010.69;5113374;28;1020;-63
2022/09/12 01:39:50;;;;;;;;;;;;;;;17.25;74.21;95016.94;5113346;28;2008;-63
2022/09/12 01:42:22;;;;;;;;;;;;;;;17.13;74.34;95019.38;5114078;28;1015;-64
2022/09/12 01:44:52;;;;;;;;;;;;;;;16.96;75.43;95019.78;5117420;28;961;-64
2022/09/12 01:47:41;;;;;;;;;;;;;;;16.91;77.29;95022.25;5117334;28;980;-63
2022/09/12 01:50:07;;;;;;;;;;;;;;;16.88;77.74;95019.94;5109015;28;1095;-64
2022/09/12 01:52:53;;;;;;;;;;;;;;;17.11;77.26;95024.16;5117082;28;972;-64
2022/09/12 01:55:25;;;;;;;;;;;;;;;17.49;75.94;95029.00;5116841;28;1228;-64
2022/09/12 01:58:12;;;;;;;;;;;;;;;17.79;74.27;95018.59;5116964;28;1047;-64
2022/09/12 02:00:43;;;;;;;;;;;;;;;17.51;74.60;95013.41;5103010;28;2298;-63
2022/09/12 02:03:29;;;;;;;;;;;;;;;17.22;74.68;95022.75;5117037;28;1007;-64
2022/09/12 02:05:59;;;;;;;;;;;;;;;16.74;74.78;95018.22;5116639;28;1350;-63
2022/09/12 02:08:32;;;;;;;;;;;;;;;16.87;75.81;95022.88;5116821;28;1040;-63
2022/09/12 02:11:01;;;;;;;;;;;;;;;17.10;74.64;95025.22;5116890;27;964;-63
2022/09/12 02:13:30;;;;;;;;;;;;;;;17.35;74.05;95022.75;5116721;28;1095;-64
2022/09/12 02:16:00;;;;;;;;;;;;;;;17.28;73.44;95038.97;5116650;28;957;-64
2022/09/12 02:18:28;;;;;;;;;;;;;;;16.96;73.50;95024.38;5116647;28;984;-62
2022/09/12 02:20:55;;;;;;;;;;;;;;;16.87;74.32;95025.59;5116406;28;1983;-63
2022/09/12 02:23:24;;;;;;;;;;;;;;;16.98;74.29;95023.13;5116520;28;1079;-63
2022/09/12 02:25:52;;;;;;;;;;;;;;;17.14;73.61;95021.06;5116635;28;972;-63
2022/09/12 02:28:33;;;;;;;;;;;;;;;16.79;73.57;95023.88;5115272;28;986;-64
2022/09/12 02:30:59;;;;;;;;;;;;;;;16.53;73.52;95021.91;5116306;28;1035;-63
2022/09/12 02:33:25;;;;;;;;;;;;;;;16.32;74.16;95029.06;5116275;28;1060;-63
2022/09/12 02:35:59;;;;;;;;;;;;;;;16.37;73.75;95023.91;5116310;28;1075;-63
2022/09/12 02:38:34;;;;;;;;;;;;;;;16.52;74.13;95028.31;5116349;28;1110;-63
2022/09/12 02:41:00;;;;;;;;;;;;;;;16.56;73.04;95024.16;5116178;28;1902;-63
2022/09/12 02:43:26;;;;;;;;;;;;;;;16.68;72.57;95024.44;5116018;28;1059;-63
2022/09/12 02:45:52;;;;;;;;;;;;;;;16.87;71.91;95026.41;5116426;28;1015;-64
2022/09/12 02:48:38;;;;;;;;;;;;;;;16.77;72.67;95031.34;5115933;28;1091;-64
2022/09/12 02:51:05;;;;;;;;;;;;;;;16.67;72.93;95026.28;5115980;28;1141;-63
2022/09/12 02:53:31;;;;;;;;;;;;;;;16.53;73.14;95036.22;5114186;28;1153;-63
2022/09/12 02:55:57;;;;;;;;;;;;;;;16.39;72.82;95027.22;5115966;28;1863;-62
2022/09/12 02:58:26;;;;;;;;;;;;;;;15.95;74.48;95039.22;5115691;28;1020;-63
2022/09/12 03:00:52;;;;;;;;;;;;;;;15.97;74.58;95039.84;5115716;28;1973;-63
2022/09/12 03:03:23;;;;;;;;;;;;;;;16.18;74.48;95030.00;5115745;28;964;-63
2022/09/12 03:05:50;;;;;;;;;;;;;;;16.45;73.74;95027.44;5115888;28;1000;-63
2022/09/12 03:08:35;;;;;;;;;;;;;;;16.56;73.10;95030.41;5114344;28;1026;-64
2022/09/12 03:11:10;;;;;;;;;;;;;;;16.35;74.39;95027.81;5115886;28;976;-64
2022/09/12 03:13:42;;;;;;;;;;;;;;;16.32;74.01;95026.34;5115395;28;1060;-63
2022/09/12 03:16:18;;;;;;;;;;;;;;;15.94;73.48;95036.72;5115701;28;1010;-64
2022/09/12 03:18:47;;;;;;;;;;;;;;;15.73;74.77;95030.34;5115440;28;1032;-64
2022/09/12 03:21:13;;;;;;;;;;;;;;;15.73;75.36;95030.34;5115366;28;1909;-64
2022/09/12 03:23:46;;;;;;;;;;;;;;;15.74;75.30;95032.00;5115491;28;1414;-64
2022/09/12 03:26:19;;;;;;;;;;;;;;;15.75;75.98;95025.59;5115612;28;1039;-64
2022/09/12 03:28:46;;;;;;;;;;;;;;;15.84;75.54;95023.59;5115283;28;1023;-64
2022/09/12 03:31:17;;;;;;;;;;;;;;;15.90;75.65;95032.75;5114359;28;1408;-64
2022/09/12 03:33:43;;;;;;;;;;;;;;;15.75;75.11;95024.75;5115069;28;976;-63
2022/09/12 03:36:13;;;;;;;;;;;;;;;15.78;74.58;95033.28;5115411;28;1043;-63
2022/09/12 03:38:39;;;;;;;;;;;;;;;15.69;74.19;95029.03;5115044;28;1036;-63
2022/09/12 03:41:06;;;;;;;;;;;;;;;15.79;74.70;95029.56;5115117;28;1995;-63
2022/09/12 03:43:32;;;;;;;;;;;;;;;16.02;73.98;95030.34;5114839;28;1028;-63
2022/09/12 03:45:58;;;;;;;;;;;;;;;15.88;74.84;95032.09;5115012;28;1040;-63
2022/09/12 03:48:24;;;;;;;;;;;;;;;15.99;74.25;95037.78;5114677;28;1044;-61
2022/09/12 03:50:50;;;;;;;;;;;;;;;15.97;73.27;95031.78;5114907;28;1088;-62
2022/09/12 03:53:16;;;;;;;;;;;;;;;15.75;74.04;95043.63;5114745;28;1153;-63
2022/09/12 03:55:42;;;;;;;;;;;;;;;15.47;74.38;95041.72;5115037;27;1016;-63
2022/09/12 03:58:08;;;;;;;;;;;;;;;15.43;74.19;95041.25;5114781;28;1050;-63
2022/09/12 04:00:34;;;;;;;;;;;;;;;15.53;73.85;95043.63;5114440;27;1906;-63
2022/09/12 04:03:00;;;;;;;;;;;;;;;15.69;74.51;95052.44;5114431;28;958;-62
2022/09/12 04:05:26;;;;;;;;;;;;;;;15.92;73.43;95054.97;5114042;28;987;-63
2022/09/12 04:07:52;;;;;;;;;;;;;;;15.84;73.30;95064.03;5114405;28;912;-63
2022/09/12 04:10:18;;;;;;;;;;;;;;;15.71;73.06;95063.91;5114606;28;1043;-63
2022/09/12 04:12:44;;;;;;;;;;;;;;;15.62;73.68;95071.28;5114423;28;1011;-63
2022/09/12 04:15:10;;;;;;;;;;;;;;;15.48;73.94;95074.88;5114445;27;1114;-63
2022/09/12 04:17:36;;;;;;;;;;;;;;;15.61;74.14;95070.44;5114292;28;1030;-63
2022/09/12 04:20:03;;;;;;;;;;;;;;;15.81;73.25;95084.09;5114361;28;2067;-63
2022/09/12 04:22:30;;;;;;;;;;;;;;;15.74;74.25;95085.09;5114583;28;1019;-63
2022/09/12 04:24:56;;;;;;;;;;;;;;;15.99;73.70;95080.09;5114270;28;961;-63
2022/09/12 04:27:22;;;;;;;;;;;;;;;15.62;73.34;95088.25;5114317;28;945;-63
2022/09/12 04:29:48;;;;;;;;;;;;;;;15.52;74.07;95092.34;5114525;28;1031;-63
2022/09/12 04:32:14;;;;;;;;;;;;;;;15.76;74.01;95091.09;5113966;28;1087;-64
2022/09/12 04:34:40;;;;;;;;;;;;;;;15.72;73.45;95098.72;5114175;28;1057;-63
2022/09/12 04:37:06;;;;;;;;;;;;;;;15.61;74.04;95096.53;5114267;28;968;-63
2022/09/12 04:39:32;;;;;;;;;;;;;;;15.59;74.57;95096.75;5113972;28;1011;-63
2022/09/12 04:41:58;;;;;;;;;;;;;;;15.64;75.20;95098.88;5113933;28;1969;-64
2022/09/12 04:44:24;;;;;;;;;;;;;;;16.01;74.57;95096.91;5113799;28;1047;-63
2022/09/12 04:46:51;;;;;;;;;;;;;;;15.74;74.69;95094.00;5113923;28;947;-64
2022/09/12 04:49:18;;;;;;;;;;;;;;;15.68;74.84;95108.22;5113899;28;976;-64
2022/09/12 04:51:44;;;;;;;;;;;;;;;16.12;74.08;95098.22;5113894;28;1036;-63
2022/09/12 04:54:11;;;;;;;;;;;;;;;16.22;74.60;95108.66;5113768;28;1145;-63
2022/09/12 04:56:39;;;;;;;;;;;;;;;16.04;75.77;95112.69;5113868;28;1019;-63
2022/09/12 04:59:05;;;;;;;;;;;;;;;16.00;76.53;95114.94;5113867;28;1357;-64
2022/09/12 05:01:31;;;;;;;;;;;;;;;16.40;75.09;95115.22;5113641;28;1913;-63
2022/09/12 05:03:58;;;;;;;;;;;;;;;16.71;75.21;95107.72;5113824;28;1087;-63
2022/09/12 05:06:26;;;;;;;;;;;;;;;16.90;74.39;95112.41;5113840;28;980;-63
2022/09/12 05:08:52;;;;;;;;;;;;;;;17.13;73.91;95112.09;5113653;28;1028;-64
2022/09/12 05:11:23;;;;;;;;;;;;;;;17.19;74.54;95113.16;5112468;28;1012;-63
2022/09/12 05:13:49;;;;;;;;;;;;;;;17.22;75.14;95112.72;5113514;28;1039;-64
2022/09/12 05:16:16;;;;;;;;;;;;;;;17.22;75.38;95110.03;5114253;28;1518;-64
2022/09/12 05:18:43;;;;;;;;;;;;;;;17.34;75.17;95111.09;5117815;28;1020;-64
2022/09/12 05:21:13;;;;;;;;;;;;;;;17.42;75.16;95106.56;5117766;28;1913;-64
2022/09/12 05:23:39;;;;;;;;;;;;;;;17.41;75.12;95103.00;5117824;28;1055;-63
2022/09/12 05:26:05;;;;;;;;;;;;;;;17.03;77.11;95106.22;5117674;28;984;-64
2022/09/12 05:28:33;;;;;;;;;;;;;;;16.83;77.98;95103.44;5117578;28;968;-63
2022/09/12 05:31:00;;;;;;;;;;;;;;;17.04;77.00;95105.19;5117757;27;1051;-64
2022/09/12 05:33:26;;;;;;;;;;;;;;;17.33;76.12;95098.63;5117503;28;1032;-64
2022/09/12 05:35:52;;;;;;;;;;;;;;;17.23;77.53;95100.06;5117756;28;960;-63
2022/09/12 05:38:19;;;;;;;;;;;;;;;16.81;80.37;95097.38;5117431;27;995;-63
2022/09/12 05:40:44;;;;;;;;;;;;;;;16.64;80.48;95096.03;5117181;28;1988;-63
2022/09/12 05:43:13;;;;;;;;;;;;;;;16.64;80.68;95090.63;5117318;28;1014;-64
2022/09/12 05:45:40;;;;;;;;;;;;;;;16.85;80.52;95098.69;5117165;28;1083;-63
2022/09/12 05:48:06;;;;;;;;;;;;;;;17.01;80.45;95108.28;5117500;28;1008;-63
2022/09/12 05:50:32;;;;;;;;;;;;;;;17.40;78.17;95105.94;5117193;28;1043;-63
2022/09/12 05:52:58;;;;;;;;;;;;;;;17.33;76.65;95111.31;5117276;28;1019;-63
2022/09/12 05:55:24;;;;;;;;;;;;;;;17.60;77.29;95116.75;5116902;28;1227;-64
2022/09/12 05:57:50;;;;;;;;;;;;;;;17.67;75.55;95112.22;5117042;28;1114;-63
2022/09/12 06:00:17;;;;;;;;;;;;;;;18.00;74.54;95119.53;5116561;28;1980;-62
2022/09/12 06:02:43;;;;;;;;;;;;;;;18.10;73.77;95106.44;5117242;28;1060;-63
2022/09/12 06:05:09;;;;;;;;;;;;;;;17.90;73.54;95109.13;5116958;28;960;-62
2022/09/12 06:07:35;;;;;;;;;;;;;;;18.10;73.44;95104.56;5116944;28;1000;-63
2022/09/12 06:10:02;;;;;;;;;;;;;;;18.46;72.28;95111.38;5116720;28;1186;-63
2022/09/12 06:12:29;;;;;;;;;;;;;;;18.52;72.40;95110.53;5116691;28;1079;-63
2022/09/12 06:14:55;;;;;;;;;;;;;;;18.57;73.15;95111.78;5116893;28;1028;-63
2022/09/12 06:17:21;;;;;;;;;;;;;;;18.46;74.73;95111.38;5116867;28;1003;-63
2022/09/12 06:19:49;;;;;;;;;;;;;;;18.61;73.46;95104.88;5116709;28;1910;-63
2022/09/12 06:22:17;;;;;;;;;;;;;;;18.80;74.64;95105.88;5116588;27;1087;-63
2022/09/12 06:24:44;;;;;;;;;;;;;;;18.66;73.88;95100.50;5116735;28;991;-62
2022/09/12 06:27:09;;;;;;;;;;;;;;;18.76;73.77;95096.50;5116283;28;964;-63
2022/09/12 06:29:36;;;;;;;;;;;;;;;18.68;73.15;95108.41;5115886;28;955;-63
2022/09/12 06:32:02;;;;;;;;;;;;;;;18.79;73.31;95101.50;5115306;28;965;-62
2022/09/12 06:34:29;;;;;;;;;;;;;;;18.94;73.11;95109.41;5116457;28;1024;-62
2022/09/12 06:36:56;;;;;;;;;;;;;;;19.14;73.66;95103.91;5115057;28;984;-63
2022/09/12 06:39:22;;;;;;;;;;;;;;;19.36;71.91;95099.81;5116269;28;1051;-63
2022/09/12 06:41:49;;;;;;;;;;;;;;;19.38;70.19;95103.16;5115937;28;1977;-63
2022/09/12 06:44:16;;;;;;;;;;;;;;;19.57;71.62;95109.50;5116409;28;964;-63
2022/09/12 06:46:43;;;;;;;;;;;;;;;19.79;69.47;95104.59;5116188;28;1013;-63
2022/09/12 06:49:10;;;;;;;;;;;;;;;20.01;69.66;95104.22;5116121;28;1024;-62
2022/09/12 06:51:36;;;;;;;;;;;;;;;20.21;69.14;95113.03;5115847;28;1052;-63
2022/09/12 06:54:04;;;;;;;;;;;;;;;20.48;67.98;95102.75;5115948;28;1204;-63
2022/09/12 06:56:30;;;;;;;;;;;;;;;20.74;64.83;95098.13;5115739;28;960;-63
2022/09/12 06:58:56;;;;;;;;;;;;;;;20.98;62.57;95092.84;5116039;28;1111;-64
2022/09/12 07:01:24;;;;;;;;;;;;;;;21.40;62.38;95095.66;5115613;28;1983;-63
2022/09/12 07:03:51;;;;;;;;;;;;;;;21.95;60.25;95108.28;5116036;28;1028;-63
2022/09/12 07:06:18;;;;;;;;;;;;;;;22.48;60.34;95103.88;5115692;28;1007;-63
2022/09/12 07:08:45;;;;;;;;;;;;;;;23.29;57.23;95109.47;5115779;28;1036;-63
2022/09/12 07:11:17;;;;;;;;;;;;;;;23.92;54.99;95119.47;5115505;28;1053;-63
2022/09/12 07:13:44;;;;;;;;;;;;;;;24.43;52.33;95121.41;5115905;28;939;-63
2022/09/12 07:16:11;;;;;;;;;;;;;;;24.74;50.83;95120.84;5115529;28;1032;-63
2022/09/12 07:18:38;;;;;;;;;;;;;;;25.03;51.11;95122.59;5115615;28;984;-63
2022/09/12 07:21:05;;;;;;;;;;;;;;;25.53;48.09;95132.56;5115375;28;1988;-62
2022/09/12 07:23:31;;;;;;;;;;;;;;;26.78;45.77;95125.28;5115417;28;925;-63
2022/09/12 07:25:58;;;;;;;;;;;;;;;27.57;42.94;95127.13;5115680;28;961;-62
2022/09/12 07:28:29;;;;;;;;;;;;;;;28.02;42.72;95128.38;5115425;28;968;-63
2022/09/12 07:30:55;;;;;;;;;;;;;;;27.81;42.62;95132.97;5115510;28;936;-63
2022/09/12 07:33:22;;;;;;;;;;;;;;;25.36;48.05;95120.84;5113948;28;1047;-62
2022/09/12 07:35:48;;;;;;;;;;;;;;;23.67;52.50;95125.22;5115298;28;1106;-62
2022/09/12 07:38:15;;;;;;;;;;;;;;;22.51;57.16;95115.13;5114886;28;972;-62
2022/09/12 07:40:41;;;;;;;;;;;;;;;21.94;57.74;95120.25;5114210;28;1985;-62
2022/09/12 07:43:07;;;;;;;;;;;;;;;21.48;59.15;95117.13;5114905;28;1135;-62
2022/09/12 07:45:33;;;;;;;;;;;;;;;21.19;59.76;95118.72;5114933;28;1075;-62
2022/09/12 07:47:59;;;;;;;;;;;;;;;20.96;63.00;95119.41;5114924;28;1054;-63
2022/09/12 07:50:25;;;;;;;;;;;;;;;20.72;63.50;95119.25;5114969;28;1031;-62
2022/09/12 07:52:55;;;;;;;;;;;;;;;20.64;63.40;95123.09;5114616;28;1051;-62
2022/09/12 07:55:21;;;;;;;;;;;;;;;20.54;63.54;95124.63;5114921;28;1208;-62
2022/09/12 07:57:50;;;;;;;;;;;;;;;20.48;61.62;95124.47;5114633;28;1047;-63
2022/09/12 08:00:17;;;;;;;;;;;;;;;20.41;61.74;95117.44;5114393;28;1914;-63
2022/09/12 08:02:43;;;;;;;;;;;;;;;20.44;61.30;95123.25;5115065;28;1341;-62
2022/09/12 08:05:09;;;;;;;;;;;;;;;20.42;62.96;95117.22;5114643;28;1091;-62
2022/09/12 08:07:35;;;;;;;;;;;;;;;20.40;61.83;95115.78;5114290;28;1035;-63
2022/09/12 08:10:01;;;;;;;;;;;;;;;22.09;56.81;95114.34;5114764;28;983;-63
2022/09/12 08:12:28;;;;;;;;;;;;;;;26.57;47.18;95122.38;5114453;28;1043;-62
2022/09/12 08:14:54;;;;;;;;;;;;;;;31.58;36.40;95137.53;5114666;28;1016;-62
2022/09/12 08:17:20;;;;;;;;;;;;;;;34.28;32.15;95146.31;5114327;28;1015;-62
2022/09/12 08:19:47;;;;;;;;;;;;;;;36.01;29.52;95158.03;5114366;28;1902;-63
2022/09/12 08:22:13;;;;;;;;;;;;;;;34.27;31.79;95141.91;5114136;28;1067;-63
2022/09/12 08:24:39;;;;;;;;;;;;;;;30.97;36.00;95127.13;5114221;28;1059;-62
2022/09/12 08:27:06;;;;;;;;;;;;;;;28.49;40.32;95120.16;5114319;28;1020;-62
2022/09/12 08:29:32;;;;;;;;;;;;;;;27.79;42.00;95110.44;5114004;28;1071;-62
2022/09/12 08:31:58;;;;;;;;;;;;;;;25.60;47.62;95105.81;5114281;28;972;-62
2022/09/12 08:34:24;;;;;;;;;;;;;;;25.60;48.17;95105.00;5114023;28;1036;-61
2022/09/12 08:36:53;;;;;;;;;;;;;;;24.91;48.21;95114.50;5114079;28;1011;-62
2022/09/12 08:39:19;;;;;;;;;;;;;;;24.74;49.19;95115.34;5113806;28;1131;-62
2022/09/12 08:41:46;;;;;;;;;;;;;;;24.20;50.14;95108.72;5114180;28;1988;-62
2022/09/12 08:44:27;;;;;;;;;;;;;;;23.62;51.90;95107.94;5113968;28;973;-62
2022/09/12 08:46:53;;;;;;;;;;;;;;;23.38;53.16;95110.75;5114045;28;1036;-62
2022/09/12 08:49:28;;;;;;;;;;;;;;;22.93;54.17;95101.34;5113682;28;1014;-61
2022/09/12 08:51:55;;;;;;;;;;;;;;;22.50;54.57;95104.47;5113542;28;1028;-62
2022/09/12 08:54:26;;;;;;;;;;;;;;;22.32;56.66;95102.69;5113562;28;1216;-61
2022/09/12 08:56:56;;;;;;;;;;;;;;;22.14;57.13;95101.69;5112800;28;1003;-62
2022/09/12 08:59:24;;;;;;;;;;;;;;;22.01;56.10;95093.75;5113294;28;1083;-62
2022/09/12 09:01:54;;;;;;;;;;;;;;;21.92;56.76;95090.53;5113683;28;1979;-62
2022/09/12 09:04:20;;;;;;;;;;;;;;;21.85;58.59;95095.22;5112489;28;972;-62
2022/09/12 09:06:54;;;;;;;;;;;;;;;21.86;59.78;95091.47;5113915;28;964;-61
2022/09/12 09:09:38;;;;;;;;;;;;;;;22.27;58.55;95100.69;5113660;28;1046;-61
2022/09/12 09:12:40;;;;;;;;;;;;;;;22.45;55.96;95099.72;5113757;28;960;-62
2022/09/12 09:15:08;;;;;;;;;;;;;;;22.63;57.15;95096.03;5034084;28;1312;-61
2022/09/12 09:17:38;;;;;;;;;;;;;;;22.53;56.84;95098.53;5101945;28;961;-61
2022/09/12 09:20:17;;;;;;;;;;;;;;;22.18;56.46;95093.91;5113513;28;1906;-61
2022/09/12 09:22:49;;;;;;;;;;;;;;;22.02;57.02;95098.13;5113509;28;1083;-61
2022/09/12 09:25:18;;;;;;;;;;;;;;;21.88;57.58;95100.22;5113568;28;1027;-61
2022/09/12 09:27:47;;;;;;;;;;;;;;;21.81;56.83;95094.03;5113724;28;1051;-61
2022/09/12 09:30:15;;;;;;;;;;;;;;;21.72;57.80;95096.28;5113305;28;1024;-61
2022/09/12 09:32:43;;;;;;;;;;;;;;;21.60;58.83;95088.06;5113587;28;984;-62
2022/09/12 09:35:15;;;;;;;;;;;;;;;21.46;60.75;95089.34;5113178;28;1025;-61
2022/09/12 09:37:43;;;;;;;;;;;;;;;21.40;59.86;95090.22;5113386;28;1060;-62
2022/09/12 09:40:18;;;;;;;;;;;;;;;21.41;59.75;95091.88;5113340;28;1996;-62
2022/09/12 09:42:52;;;;;;;;;;;;;;;21.42;59.61;95082.66;5112324;28;1016;-62
2022/09/12 09:45:20;;;;;;;;;;;;;;;21.45;59.16;95085.75;5113250;28;1014;-62
2022/09/12 09:47:52;;;;;;;;;;;;;;;21.44;59.49;95084.13;5113363;28;933;-62
2022/09/12 09:50:18;;;;;;;;;;;;;;;21.50;59.73;95087.81;5113166;28;1111;-62
2022/09/12 09:52:45;;;;;;;;;;;;;;;21.51;58.66;95085.91;5113504;28;996;-62
2022/09/12 09:55:15;;;;;;;;;;;;;;;21.54;59.29;95083.56;5113485;28;1157;-62
2022/09/12 09:57:43;;;;;;;;;;;;;;;21.54;60.04;95083.56;5113425;28;964;-62
2022/09/12 10:00:21;;;;;;;;;;;;;;;21.49;59.37;95086.13;5112876;28;1986;-62
2022/09/12 10:03:03;;;;;;;;;;;;;;;21.54;60.92;95083.56;5113270;28;1040;-62
2022/09/12 10:05:31;;;;;;;;;;;;;;;21.62;57.78;95080.50;5116801;28;1056;-61
2022/09/12 10:07:57;;;;;;;;;;;;;;;21.81;56.96;95086.69;5117108;28;1043;-62
2022/09/12 10:10:24;;;;;;;;;;;;;;;22.04;57.55;95076.94;5115542;28;1059;-62
2022/09/12 10:13:04;;;;;;;;;;;;;;;22.47;55.11;95080.44;5116916;27;1039;-62
2022/09/12 10:15:32;;;;;;;;;;;;;;;22.78;54.18;95076.47;5116869;28;1205;-61
2022/09/12 10:17:58;;;;;;;;;;;;;;;22.92;52.89;95075.16;5116920;28;1034;-62
2022/09/12 10:20:30;;;;;;;;;;;;;;;22.99;52.76;95075.03;5116534;28;1906;-62
2022/09/12 10:23:01;;;;;;;;;;;;;;;22.88;52.85;95071.28;5116674;28;1088;-61
2022/09/12 10:25:27;;;;;;;;;;;;;;;22.70;51.38;95069.50;5116316;28;964;-61
2022/09/12 10:27:56;;;;;;;;;;;;;;;22.74;52.47;95078.03;5116764;28;1035;-62
2022/09/12 10:30:26;;;;;;;;;;;;;;;22.88;51.26;95062.25;5116507;28;1054;-62
2022/09/12 10:32:56;;;;;;;;;;;;;;;22.94;50.96;95061.31;5116695;27;1201;-62
2022/09/12 10:35:24;;;;;;;;;;;;;;;22.69;50.95;95058.84;5116254;28;976;-61
2022/09/12 10:37:57;;;;;;;;;;;;;;;22.48;54.68;95068.47;5116407;28;1025;-61
2022/09/12 10:40:23;;;;;;;;;;;;;;;22.35;53.30;95073.09;5116235;28;1984;-62
2022/09/12 10:42:50;;;;;;;;;;;;;;;22.13;52.92;95074.69;5116456;28;1035;-62
2022/09/12 10:45:18;;;;;;;;;;;;;;;21.94;53.71;95069.34;5116167;28;929;-62
2022/09/12 10:47:44;;;;;;;;;;;;;;;21.81;52.70;95067.66;5116223;28;1032;-62
2022/09/12 10:50:22;;;;;;;;;;;;;;;21.74;54.68;95069.66;5116050;28;1019;-62
2022/09/12 10:52:48;;;;;;;;;;;;;;;21.69;54.51;95072.25;5116008;28;1037;-62
2022/09/12 10:55:14;;;;;;;;;;;;;;;21.69;57.92;95083.13;5115942;28;1216;-62
2022/09/12 10:57:40;;;;;;;;;;;;;;;21.62;54.33;95080.50;5116200;28;1043;-61
2022/09/12 11:00:19;;;;;;;;;;;;;;;21.47;54.56;95082.00;5115642;28;1942;-62
2022/09/12 11:03:21;;;;;;;;;;;;;;;21.48;53.34;95079.06;5115922;28;1048;-62
2022/09/12 11:05:47;;;;;;;;;;;;;;;21.47;55.56;95079.28;5036200;28;1347;-62
2022/09/12 11:08:15;;;;;;;;;;;;;;;21.55;55.18;95073.50;5103260;28;933;-62
2022/09/12 11:10:41;;;;;;;;;;;;;;;21.63;53.61;95075.91;5115516;28;1068;-62
2022/09/12 11:13:13;;;;;;;;;;;;;;;21.67;53.34;95073.56;5115769;28;1022;-62
2022/09/12 11:15:45;;;;;;;;;;;;;;;21.76;52.43;95069.41;5115204;28;1012;-62
2022/09/12 11:18:11;;;;;;;;;;;;;;;21.62;52.50;95066.91;5115841;28;956;-62
2022/09/12 11:20:37;;;;;;;;;;;;;;;21.61;52.92;95062.53;5115191;28;1914;-62
2022/09/12 11:23:15;;;;;;;;;;;;;;;21.68;53.39;95067.84;5115662;28;1032;-62
2022/09/12 11:25:51;;;;;;;;;;;;;;;21.86;53.95;95069.69;5115274;28;1033;-62
2022/09/12 11:28:20;;;;;;;;;;;;;;;21.95;53.69;95068.28;5115322;28;1110;-62
2022/09/12 11:30:46;;;;;;;;;;;;;;;22.06;53.44;95068.53;5115385;28;1023;-62
2022/09/12 11:33:18;;;;;;;;;;;;;;;22.06;51.93;95063.91;5115462;28;956;-62
2022/09/12 11:35:47;;;;;;;;;;;;;;;22.05;50.99;95069.63;5115191;28;956;-62
2022/09/12 11:38:28;;;;;;;;;;;;;;;21.99;52.31;95076.81;5115204;28;1315;-62
2022/09/12 11:41:14;;;;;;;;;;;;;;;21.99;50.61;95060.50;5114831;28;2001;-62
2022/09/12 11:43:40;;;;;;;;;;;;;;;21.89;52.51;95073.81;5115343;28;973;-62
2022/09/12 11:46:18;;;;;;;;;;;;;;;21.92;52.67;95073.38;5114914;28;1079;-62
2022/09/12 11:48:49;;;;;;;;;;;;;;;21.93;51.96;95064.13;5113929;28;971;-62
2022/09/12 11:51:22;;;;;;;;;;;;;;;21.98;52.95;95064.25;5113452;28;1242;-61
2022/09/12 11:54:14;;;;;;;;;;;;;;;22.00;51.11;95064.84;5114816;28;1209;-62
2022/09/12 12:00:17;;;;;;;;;;;;;;;21.93;52.73;95064.13;4025408;28;2765;-68
2022/09/12 12:02:51;;;;;;;;;;;;;;;21.93;53.81;95064.13;5073987;28;1099;-62
2022/09/12 12:05:20;;;;;;;;;;;;;;;22.13;52.37;95061.09;5074048;28;1032;-62
2022/09/12 12:07:57;;;;;;;;;;;;;;;22.14;52.03;95054.56;5073819;28;1051;-63
2022/09/12 12:10:35;;;;;;;;;;;;;;;22.12;53.89;95052.09;5073908;28;1025;-62
2022/09/12 12:13:06;;;;;;;;;;;;;;;22.18;52.36;95053.06;5073856;28;1013;-62
2022/09/12 12:15:35;;;;;;;;;;;;;;;22.10;52.29;95053.38;5073947;28;1007;-62
2022/09/12 12:18:06;;;;;;;;;;;;;;;22.03;53.48;95054.31;5073713;28;1103;-63
2022/09/12 12:20:32;;;;;;;;;;;;;;;22.03;52.33;95054.31;5073538;28;1906;-62
2022/09/12 12:22:58;;;;;;;;;;;;;;;22.02;52.71;95057.28;5073587;28;1088;-62
2022/09/12 12:25:38;;;;;;;;;;;;;;;22.00;51.89;95053.97;5073605;28;1020;-62
2022/09/12 12:28:05;;;;;;;;;;;;;;;21.89;52.81;95060.22;5073320;28;1072;-62
2022/09/12 12:30:32;;;;;;;;;;;;;;;21.90;52.39;95051.81;5073611;28;1040;-62
2022/09/12 12:33:08;;;;;;;;;;;;;;;21.92;52.01;95048.88;5073456;28;991;-63
2022/09/12 12:35:35;;;;;;;;;;;;;;;21.93;51.63;95039.63;5073723;28;952;-63
2022/09/12 12:38:02;;;;;;;;;;;;;;;21.86;52.97;95044.38;5073579;28;1051;-62
2022/09/12 12:40:29;;;;;;;;;;;;;;;21.90;52.36;95034.69;5073359;28;1910;-63
2022/09/12 12:42:55;;;;;;;;;;;;;;;21.95;51.10;95035.63;5073260;28;1036;-62
2022/09/12 12:45:28;;;;;;;;;;;;;;;21.93;51.12;95047.78;5073376;28;953;-62
2022/09/12 12:47:59;;;;;;;;;;;;;;;21.97;51.54;95038.94;5073518;28;964;-62
2022/09/12 12:50:26;;;;;;;;;;;;;;;21.97;51.53;95038.94;5073273;28;1092;-62
2022/09/12 12:53:13;;;;;;;;;;;;;;;22.01;50.95;95031.97;5073145;28;1045;-62
2022/09/12 12:55:42;;;;;;;;;;;;;;;22.10;50.68;95037.03;5053318;28;1025;-62
2022/09/12 12:58:23;;;;;;;;;;;;;;;22.06;51.48;95033.97;5052973;28;1057;-62
2022/09/12 13:01:01;;;;;;;;;;;;;;;22.18;52.05;95036.72;5065307;28;1975;-63
2022/09/12 13:03:29;;;;;;;;;;;;;;;22.18;51.02;95034.00;5093233;28;1036;-62
2022/09/12 13:05:58;;;;;;;;;;;;;;;22.23;50.44;95029.50;5093917;28;1033;-62
2022/09/12 13:08:32;;;;;;;;;;;;;;;22.29;51.09;95030.47;5093014;28;1032;-62
2022/09/12 13:11:10;;;;;;;;;;;;;;;22.31;51.18;95027.47;5092198;28;1064;-63
2022/09/12 13:13:56;;;;;;;;;;;;;;;22.35;52.75;95025.97;5093070;28;1107;-63
2022/09/12 13:16:39;;;;;;;;;;;;;;;22.39;51.50;95025.25;5093228;28;1127;-62